sensor_id;sensor_type;location;lat;lon;timestamp;P1;durP1;ratioP1;P2;durP2;ratioP2
39814;SDS011;25495;45.948;4.568;2022-10-22T00:01:31;0.75;;;0.43;;
39814;SDS011;25495;45.948;4.568;2022-10-22T00:03:57;1.27;;;0.25;;
39814;SDS011;25495;45.948;4.568;2022-10-22T00:06:23;2.25;;;0.40;;
39814;SDS011;25495;45.948;4.568;2022-10-22T00:08:49;1.85;;;0.45;;
39814;SDS011;25495;45.948;4.568;2022-10-22T00:11:16;1.00;;;0.40;;
39814;SDS011;25495;45.948;4.568;2022-10-22T00:13:44;1.17;;;0.40;;
39814;SDS011;25495;45.948;4.568;2022-10-22T00:16:10;0.75;;;0.50;;
39814;SDS011;25495;45.948;4.568;2022-10-22T00:18:37;1.27;;;0.45;;
39814;SDS011;25495;45.948;4.568;2022-10-22T00:21:03;1.92;;;0.63;;
39814;SDS011;25495;45.948;4.568;2022-10-22T00:23:30;0.77;;;0.40;;
39814;SDS011;25495;45.948;4.568;2022-10-22T00:25:56;1.60;;;0.40;;
39814;SDS011;25495;45.948;4.568;2022-10-22T00:28:22;0.88;;;0.60;;
39814;SDS011;25495;45.948;4.568;2022-10-22T00:30:53;1.85;;;0.75;;
39814;SDS011;25495;45.948;4.568;2022-10-22T00:33:23;1.50;;;0.52;;
39814;SDS011;25495;45.948;4.568;2022-10-22T00:35:50;1.13;;;0.60;;
39814;SDS011;25495;45.948;4.568;2022-10-22T00:38:15;2.47;;;0.65;;
39814;SDS011;25495;45.948;4.568;2022-10-22T00:40:41;2.40;;;0.38;;
39814;SDS011;25495;45.948;4.568;2022-10-22T00:43:14;0.73;;;0.40;;
39814;SDS011;25495;45.948;4.568;2022-10-22T00:45:42;1.60;;;0.47;;
39814;SDS011;25495;45.948;4.568;2022-10-22T00:48:29;0.90;;;0.32;;
39814;SDS011;25495;45.948;4.568;2022-10-22T00:50:56;3.13;;;0.50;;
39814;SDS011;25495;45.948;4.568;2022-10-22T00:55:59;4.13;;;0.50;;
39814;SDS011;25495;45.948;4.568;2022-10-22T00:58:26;2.35;;;0.50;;
39814;SDS011;25495;45.948;4.568;2022-10-22T01:00:55;0.60;;;0.50;;
39814;SDS011;25495;45.948;4.568;2022-10-22T01:03:22;0.68;;;0.47;;
39814;SDS011;25495;45.948;4.568;2022-10-22T01:05:58;0.52;;;0.50;;
39814;SDS011;25495;45.948;4.568;2022-10-22T01:08:30;0.28;;;0.28;;
39814;SDS011;25495;45.948;4.568;2022-10-22T01:14:07;0.50;;;0.20;;
39814;SDS011;25495;45.948;4.568;2022-10-22T01:16:47;1.05;;;0.85;;
39814;SDS011;25495;45.948;4.568;2022-10-22T01:22:14;1.90;;;0.60;;
39814;SDS011;25495;45.948;4.568;2022-10-22T01:24:56;1.05;;;0.30;;
39814;SDS011;25495;45.948;4.568;2022-10-22T01:30:08;5.22;;;1.63;;
39814;SDS011;25495;45.948;4.568;2022-10-22T01:32:38;2.08;;;1.27;;
39814;SDS011;25495;45.948;4.568;2022-10-22T01:35:11;2.08;;;1.50;;
39814;SDS011;25495;45.948;4.568;2022-10-22T01:37:43;4.72;;;1.17;;
39814;SDS011;25495;45.948;4.568;2022-10-22T01:40:13;4.70;;;2.10;;
39814;SDS011;25495;45.948;4.568;2022-10-22T01:42:40;1.38;;;0.60;;
39814;SDS011;25495;45.948;4.568;2022-10-22T01:45:10;2.55;;;0.47;;
39814;SDS011;25495;45.948;4.568;2022-10-22T01:55:50;2.88;;;1.60;;
39814;SDS011;25495;45.948;4.568;2022-10-22T01:58:47;7.60;;;2.47;;
39814;SDS011;25495;45.948;4.568;2022-10-22T02:04:28;7.63;;;2.40;;
39814;SDS011;25495;45.948;4.568;2022-10-22T02:07:00;6.82;;;3.67;;
39814;SDS011;25495;45.948;4.568;2022-10-22T02:09:29;10.93;;;4.63;;
39814;SDS011;25495;45.948;4.568;2022-10-22T02:11:57;11.48;;;4.57;;
39814;SDS011;25495;45.948;4.568;2022-10-22T02:14:26;6.85;;;4.35;;
39814;SDS011;25495;45.948;4.568;2022-10-22T02:16:54;7.22;;;4.40;;
39814;SDS011;25495;45.948;4.568;2022-10-22T02:21:53;8.35;;;4.25;;
39814;SDS011;25495;45.948;4.568;2022-10-22T02:24:19;6.50;;;4.00;;
39814;SDS011;25495;45.948;4.568;2022-10-22T02:26:54;9.95;;;4.05;;
39814;SDS011;25495;45.948;4.568;2022-10-22T02:32:02;7.72;;;4.30;;
39814;SDS011;25495;45.948;4.568;2022-10-22T02:34:31;12.80;;;4.30;;
39814;SDS011;25495;45.948;4.568;2022-10-22T02:36:58;12.45;;;4.45;;
39814;SDS011;25495;45.948;4.568;2022-10-22T02:39:26;6.88;;;3.83;;
39814;SDS011;25495;45.948;4.568;2022-10-22T02:41:53;5.80;;;2.95;;
39814;SDS011;25495;45.948;4.568;2022-10-22T02:44:21;6.97;;;3.60;;
39814;SDS011;25495;45.948;4.568;2022-10-22T02:46:48;5.22;;;3.17;;
39814;SDS011;25495;45.948;4.568;2022-10-22T02:49:14;9.57;;;3.53;;
39814;SDS011;25495;45.948;4.568;2022-10-22T02:51:40;7.13;;;2.63;;
39814;SDS011;25495;45.948;4.568;2022-10-22T02:54:06;4.45;;;2.38;;
39814;SDS011;25495;45.948;4.568;2022-10-22T02:56:32;8.35;;;2.10;;
39814;SDS011;25495;45.948;4.568;2022-10-22T02:58:58;9.80;;;2.88;;
39814;SDS011;25495;45.948;4.568;2022-10-22T03:01:24;6.78;;;2.58;;
39814;SDS011;25495;45.948;4.568;2022-10-22T03:03:50;7.32;;;3.25;;
39814;SDS011;25495;45.948;4.568;2022-10-22T03:06:16;11.82;;;3.40;;
39814;SDS011;25495;45.948;4.568;2022-10-22T03:08:42;13.55;;;3.42;;
39814;SDS011;25495;45.948;4.568;2022-10-22T03:11:08;7.57;;;3.83;;
39814;SDS011;25495;45.948;4.568;2022-10-22T03:13:34;11.00;;;3.28;;
39814;SDS011;25495;45.948;4.568;2022-10-22T03:16:00;8.55;;;2.60;;
39814;SDS011;25495;45.948;4.568;2022-10-22T03:18:25;9.15;;;2.90;;
39814;SDS011;25495;45.948;4.568;2022-10-22T03:21:11;6.07;;;3.47;;
39814;SDS011;25495;45.948;4.568;2022-10-22T03:23:45;7.40;;;3.45;;
39814;SDS011;25495;45.948;4.568;2022-10-22T03:26:11;7.05;;;3.60;;
39814;SDS011;25495;45.948;4.568;2022-10-22T03:28:38;6.25;;;3.55;;
39814;SDS011;25495;45.948;4.568;2022-10-22T03:31:06;9.98;;;3.58;;
39814;SDS011;25495;45.948;4.568;2022-10-22T03:33:32;12.05;;;3.63;;
39814;SDS011;25495;45.948;4.568;2022-10-22T03:35:58;15.50;;;3.70;;
39814;SDS011;25495;45.948;4.568;2022-10-22T03:38:25;5.85;;;3.13;;
39814;SDS011;25495;45.948;4.568;2022-10-22T03:40:51;11.10;;;3.20;;
39814;SDS011;25495;45.948;4.568;2022-10-22T03:43:17;9.35;;;3.13;;
39814;SDS011;25495;45.948;4.568;2022-10-22T03:45:43;7.78;;;3.30;;
39814;SDS011;25495;45.948;4.568;2022-10-22T03:48:08;7.47;;;2.55;;
39814;SDS011;25495;45.948;4.568;2022-10-22T03:50:34;5.38;;;2.38;;
39814;SDS011;25495;45.948;4.568;2022-10-22T03:53:00;4.65;;;2.70;;
39814;SDS011;25495;45.948;4.568;2022-10-22T03:55:26;11.00;;;3.40;;
39814;SDS011;25495;45.948;4.568;2022-10-22T03:57:52;4.35;;;2.65;;
39814;SDS011;25495;45.948;4.568;2022-10-22T04:00:17;7.75;;;2.60;;
39814;SDS011;25495;45.948;4.568;2022-10-22T04:02:43;4.57;;;2.63;;
39814;SDS011;25495;45.948;4.568;2022-10-22T04:05:09;5.60;;;2.72;;
39814;SDS011;25495;45.948;4.568;2022-10-22T04:07:35;6.53;;;2.45;;
39814;SDS011;25495;45.948;4.568;2022-10-22T04:10:01;3.78;;;2.25;;
39814;SDS011;25495;45.948;4.568;2022-10-22T04:12:26;4.25;;;1.90;;
39814;SDS011;25495;45.948;4.568;2022-10-22T04:14:52;7.07;;;1.90;;
39814;SDS011;25495;45.948;4.568;2022-10-22T04:17:18;4.75;;;2.75;;
39814;SDS011;25495;45.948;4.568;2022-10-22T04:19:44;10.48;;;2.72;;
39814;SDS011;25495;45.948;4.568;2022-10-22T04:22:09;3.08;;;1.90;;
39814;SDS011;25495;45.948;4.568;2022-10-22T04:24:35;5.18;;;1.90;;
39814;SDS011;25495;45.948;4.568;2022-10-22T04:27:01;3.60;;;1.70;;
39814;SDS011;25495;45.948;4.568;2022-10-22T04:29:27;6.15;;;2.15;;
39814;SDS011;25495;45.948;4.568;2022-10-22T04:31:53;3.45;;;1.90;;
39814;SDS011;25495;45.948;4.568;2022-10-22T04:34:19;2.85;;;1.80;;
39814;SDS011;25495;45.948;4.568;2022-10-22T04:36:44;2.60;;;1.63;;
39814;SDS011;25495;45.948;4.568;2022-10-22T04:39:10;11.73;;;1.75;;
39814;SDS011;25495;45.948;4.568;2022-10-22T04:41:37;9.18;;;2.40;;
39814;SDS011;25495;45.948;4.568;2022-10-22T04:44:04;4.50;;;1.50;;
39814;SDS011;25495;45.948;4.568;2022-10-22T04:46:31;2.08;;;1.30;;
39814;SDS011;25495;45.948;4.568;2022-10-22T04:48:58;6.95;;;1.30;;
39814;SDS011;25495;45.948;4.568;2022-10-22T04:51:25;3.55;;;1.80;;
39814;SDS011;25495;45.948;4.568;2022-10-22T04:53:51;4.10;;;1.52;;
39814;SDS011;25495;45.948;4.568;2022-10-22T04:56:18;4.75;;;1.98;;
39814;SDS011;25495;45.948;4.568;2022-10-22T04:58:47;1.73;;;0.98;;
39814;SDS011;25495;45.948;4.568;2022-10-22T05:01:18;3.63;;;1.15;;
39814;SDS011;25495;45.948;4.568;2022-10-22T05:03:46;4.00;;;1.35;;
39814;SDS011;25495;45.948;4.568;2022-10-22T05:06:13;1.50;;;1.00;;
39814;SDS011;25495;45.948;4.568;2022-10-22T05:08:39;4.20;;;1.15;;
39814;SDS011;25495;45.948;4.568;2022-10-22T05:11:12;3.05;;;1.30;;
39814;SDS011;25495;45.948;4.568;2022-10-22T05:13:43;6.82;;;1.17;;
39814;SDS011;25495;45.948;4.568;2022-10-22T05:16:09;5.90;;;1.30;;
39814;SDS011;25495;45.948;4.568;2022-10-22T05:18:38;1.55;;;0.90;;
39814;SDS011;25495;45.948;4.568;2022-10-22T05:21:10;3.13;;;1.30;;
39814;SDS011;25495;45.948;4.568;2022-10-22T05:23:37;2.40;;;0.98;;
39814;SDS011;25495;45.948;4.568;2022-10-22T05:26:04;1.38;;;0.98;;
39814;SDS011;25495;45.948;4.568;2022-10-22T05:28:32;2.47;;;1.38;;
39814;SDS011;25495;45.948;4.568;2022-10-22T05:30:58;2.75;;;1.17;;
39814;SDS011;25495;45.948;4.568;2022-10-22T05:33:25;4.18;;;1.40;;
39814;SDS011;25495;45.948;4.568;2022-10-22T05:35:52;4.10;;;1.08;;
39814;SDS011;25495;45.948;4.568;2022-10-22T05:38:18;4.28;;;1.60;;
39814;SDS011;25495;45.948;4.568;2022-10-22T05:40:44;4.50;;;1.90;;
39814;SDS011;25495;45.948;4.568;2022-10-22T05:43:10;5.03;;;1.75;;
39814;SDS011;25495;45.948;4.568;2022-10-22T05:45:37;6.55;;;1.50;;
39814;SDS011;25495;45.948;4.568;2022-10-22T05:48:03;2.90;;;1.65;;
39814;SDS011;25495;45.948;4.568;2022-10-22T05:50:30;3.78;;;1.65;;
39814;SDS011;25495;45.948;4.568;2022-10-22T05:52:56;4.18;;;1.80;;
39814;SDS011;25495;45.948;4.568;2022-10-22T05:55:22;1.90;;;1.38;;
39814;SDS011;25495;45.948;4.568;2022-10-22T05:57:48;5.05;;;2.00;;
39814;SDS011;25495;45.948;4.568;2022-10-22T06:00:14;4.32;;;1.42;;
39814;SDS011;25495;45.948;4.568;2022-10-22T06:02:41;2.30;;;1.45;;
39814;SDS011;25495;45.948;4.568;2022-10-22T06:05:07;3.00;;;1.30;;
39814;SDS011;25495;45.948;4.568;2022-10-22T06:07:33;3.97;;;1.23;;
39814;SDS011;25495;45.948;4.568;2022-10-22T06:09:59;2.55;;;1.42;;
39814;SDS011;25495;45.948;4.568;2022-10-22T06:12:26;2.45;;;1.58;;
39814;SDS011;25495;45.948;4.568;2022-10-22T06:14:51;2.95;;;0.95;;
39814;SDS011;25495;45.948;4.568;2022-10-22T06:17:17;2.35;;;1.33;;
39814;SDS011;25495;45.948;4.568;2022-10-22T06:19:44;3.92;;;1.50;;
39814;SDS011;25495;45.948;4.568;2022-10-22T06:22:09;2.40;;;1.30;;
39814;SDS011;25495;45.948;4.568;2022-10-22T06:24:35;3.78;;;1.70;;
39814;SDS011;25495;45.948;4.568;2022-10-22T06:27:01;4.03;;;1.70;;
39814;SDS011;25495;45.948;4.568;2022-10-22T06:29:27;4.18;;;1.70;;
39814;SDS011;25495;45.948;4.568;2022-10-22T06:31:53;4.93;;;1.40;;
39814;SDS011;25495;45.948;4.568;2022-10-22T06:34:18;3.70;;;1.40;;
39814;SDS011;25495;45.948;4.568;2022-10-22T06:36:45;4.22;;;1.50;;
39814;SDS011;25495;45.948;4.568;2022-10-22T06:39:12;1.92;;;1.15;;
39814;SDS011;25495;45.948;4.568;2022-10-22T06:41:40;2.75;;;1.23;;
39814;SDS011;25495;45.948;4.568;2022-10-22T06:44:06;5.55;;;1.85;;
39814;SDS011;25495;45.948;4.568;2022-10-22T06:46:36;3.53;;;1.40;;
39814;SDS011;25495;45.948;4.568;2022-10-22T06:49:02;7.03;;;3.17;;
39814;SDS011;25495;45.948;4.568;2022-10-22T06:51:29;12.23;;;4.50;;
39814;SDS011;25495;45.948;4.568;2022-10-22T06:53:56;15.05;;;5.82;;
39814;SDS011;25495;45.948;4.568;2022-10-22T06:56:23;10.57;;;6.05;;
39814;SDS011;25495;45.948;4.568;2022-10-22T06:58:51;21.42;;;7.40;;
39814;SDS011;25495;45.948;4.568;2022-10-22T07:01:19;17.33;;;6.72;;
39814;SDS011;25495;45.948;4.568;2022-10-22T07:03:50;15.43;;;6.97;;
39814;SDS011;25495;45.948;4.568;2022-10-22T07:06:16;18.50;;;7.30;;
39814;SDS011;25495;45.948;4.568;2022-10-22T07:08:43;14.85;;;7.07;;
39814;SDS011;25495;45.948;4.568;2022-10-22T07:11:11;16.52;;;7.97;;
39814;SDS011;25495;45.948;4.568;2022-10-22T07:13:39;16.47;;;8.63;;
39814;SDS011;25495;45.948;4.568;2022-10-22T07:16:05;11.10;;;5.47;;
39814;SDS011;25495;45.948;4.568;2022-10-22T07:18:32;12.95;;;6.65;;
39814;SDS011;25495;45.948;4.568;2022-10-22T07:20:59;17.40;;;8.70;;
39814;SDS011;25495;45.948;4.568;2022-10-22T07:23:25;15.82;;;8.55;;
39814;SDS011;25495;45.948;4.568;2022-10-22T07:25:52;15.00;;;6.35;;
39814;SDS011;25495;45.948;4.568;2022-10-22T07:28:18;10.98;;;4.63;;
39814;SDS011;25495;45.948;4.568;2022-10-22T07:30:44;10.05;;;4.47;;
39814;SDS011;25495;45.948;4.568;2022-10-22T07:33:13;8.25;;;3.40;;
39814;SDS011;25495;45.948;4.568;2022-10-22T07:35:40;13.02;;;5.88;;
39814;SDS011;25495;45.948;4.568;2022-10-22T07:38:12;10.55;;;5.32;;
39814;SDS011;25495;45.948;4.568;2022-10-22T07:40:39;11.45;;;5.55;;
39814;SDS011;25495;45.948;4.568;2022-10-22T07:43:06;11.45;;;5.97;;
39814;SDS011;25495;45.948;4.568;2022-10-22T07:45:31;11.48;;;6.38;;
39814;SDS011;25495;45.948;4.568;2022-10-22T07:47:57;11.23;;;6.22;;
39814;SDS011;25495;45.948;4.568;2022-10-22T07:50:24;9.30;;;5.32;;
39814;SDS011;25495;45.948;4.568;2022-10-22T07:52:50;10.45;;;5.72;;
39814;SDS011;25495;45.948;4.568;2022-10-22T07:55:16;10.90;;;5.40;;
39814;SDS011;25495;45.948;4.568;2022-10-22T07:57:42;14.60;;;5.50;;
39814;SDS011;25495;45.948;4.568;2022-10-22T08:00:08;11.82;;;5.30;;
39814;SDS011;25495;45.948;4.568;2022-10-22T08:02:35;10.00;;;5.22;;
39814;SDS011;25495;45.948;4.568;2022-10-22T08:05:00;10.88;;;4.90;;
39814;SDS011;25495;45.948;4.568;2022-10-22T08:07:26;11.73;;;5.45;;
39814;SDS011;25495;45.948;4.568;2022-10-22T08:09:52;8.55;;;5.13;;
39814;SDS011;25495;45.948;4.568;2022-10-22T08:12:19;8.60;;;4.80;;
39814;SDS011;25495;45.948;4.568;2022-10-22T08:14:45;8.52;;;4.93;;
39814;SDS011;25495;45.948;4.568;2022-10-22T08:17:10;8.02;;;4.45;;
39814;SDS011;25495;45.948;4.568;2022-10-22T08:19:36;10.40;;;5.15;;
39814;SDS011;25495;45.948;4.568;2022-10-22T08:22:02;10.18;;;4.90;;
39814;SDS011;25495;45.948;4.568;2022-10-22T08:24:31;7.55;;;4.68;;
39814;SDS011;25495;45.948;4.568;2022-10-22T08:26:57;7.30;;;4.07;;
39814;SDS011;25495;45.948;4.568;2022-10-22T08:29:23;10.05;;;4.15;;
39814;SDS011;25495;45.948;4.568;2022-10-22T08:31:51;9.95;;;4.07;;
39814;SDS011;25495;45.948;4.568;2022-10-22T08:34:18;9.60;;;3.60;;
39814;SDS011;25495;45.948;4.568;2022-10-22T08:36:44;6.05;;;3.75;;
39814;SDS011;25495;45.948;4.568;2022-10-22T08:39:10;7.85;;;4.43;;
39814;SDS011;25495;45.948;4.568;2022-10-22T08:44:24;5.85;;;3.20;;
39814;SDS011;25495;45.948;4.568;2022-10-22T08:49:40;5.10;;;2.38;;
39814;SDS011;25495;45.948;4.568;2022-10-22T08:52:08;4.80;;;3.10;;
39814;SDS011;25495;45.948;4.568;2022-10-22T08:54:59;6.00;;;2.72;;
39814;SDS011;25495;45.948;4.568;2022-10-22T08:59:55;4.53;;;2.30;;
39814;SDS011;25495;45.948;4.568;2022-10-22T09:08:10;5.75;;;2.50;;
39814;SDS011;25495;45.948;4.568;2022-10-22T09:10:37;4.47;;;2.58;;
39814;SDS011;25495;45.948;4.568;2022-10-22T09:13:05;8.38;;;2.80;;
39814;SDS011;25495;45.948;4.568;2022-10-22T09:15:31;5.40;;;3.38;;
39814;SDS011;25495;45.948;4.568;2022-10-22T09:20:26;8.25;;;4.03;;
39814;SDS011;25495;45.948;4.568;2022-10-22T09:25:41;5.60;;;3.58;;
39814;SDS011;25495;45.948;4.568;2022-10-22T09:28:09;6.55;;;3.83;;
39814;SDS011;25495;45.948;4.568;2022-10-22T09:30:38;8.05;;;4.15;;
39814;SDS011;25495;45.948;4.568;2022-10-22T09:35:32;8.85;;;4.50;;
39814;SDS011;25495;45.948;4.568;2022-10-22T09:38:05;7.45;;;3.83;;
39814;SDS011;25495;45.948;4.568;2022-10-22T09:40:41;9.68;;;4.18;;
39814;SDS011;25495;45.948;4.568;2022-10-22T09:43:09;8.63;;;4.30;;
39814;SDS011;25495;45.948;4.568;2022-10-22T09:45:37;6.97;;;3.88;;
39814;SDS011;25495;45.948;4.568;2022-10-22T09:48:17;15.70;;;4.22;;
39814;SDS011;25495;45.948;4.568;2022-10-22T09:50:54;22.75;;;10.80;;
39814;SDS011;25495;45.948;4.568;2022-10-22T09:53:29;11.52;;;5.22;;
39814;SDS011;25495;45.948;4.568;2022-10-22T09:56:06;8.02;;;4.60;;
39814;SDS011;25495;45.948;4.568;2022-10-22T09:58:41;12.85;;;4.05;;
39814;SDS011;25495;45.948;4.568;2022-10-22T10:01:14;10.18;;;4.32;;
39814;SDS011;25495;45.948;4.568;2022-10-22T10:03:42;6.03;;;4.15;;
39814;SDS011;25495;45.948;4.568;2022-10-22T10:06:08;7.18;;;4.28;;
39814;SDS011;25495;45.948;4.568;2022-10-22T10:08:34;7.32;;;3.85;;
39814;SDS011;25495;45.948;4.568;2022-10-22T10:13:36;8.25;;;3.33;;
39814;SDS011;25495;45.948;4.568;2022-10-22T10:27:39;8.32;;;3.80;;
39814;SDS011;25495;45.948;4.568;2022-10-22T10:30:19;5.18;;;3.20;;
39814;SDS011;25495;45.948;4.568;2022-10-22T10:35:42;7.53;;;3.42;;
39814;SDS011;25495;45.948;4.568;2022-10-22T10:49:07;9.07;;;3.70;;
39814;SDS011;25495;45.948;4.568;2022-10-22T10:51:44;7.43;;;3.65;;
39814;SDS011;25495;45.948;4.568;2022-10-22T10:57:21;7.57;;;3.10;;
39814;SDS011;25495;45.948;4.568;2022-10-22T10:59:57;6.72;;;2.88;;
39814;SDS011;25495;45.948;4.568;2022-10-22T11:10:54;4.75;;;2.30;;
39814;SDS011;25495;45.948;4.568;2022-10-22T11:13:48;5.82;;;2.92;;
39814;SDS011;25495;45.948;4.568;2022-10-22T11:16:36;3.80;;;2.28;;
39814;SDS011;25495;45.948;4.568;2022-10-22T11:19:22;4.22;;;2.58;;
39814;SDS011;25495;45.948;4.568;2022-10-22T11:25:02;3.42;;;2.58;;
39814;SDS011;25495;45.948;4.568;2022-10-22T11:27:44;9.50;;;2.83;;
39814;SDS011;25495;45.948;4.568;2022-10-22T11:30:16;6.57;;;2.50;;
39814;SDS011;25495;45.948;4.568;2022-10-22T11:32:45;6.75;;;2.85;;
39814;SDS011;25495;45.948;4.568;2022-10-22T11:35:17;5.82;;;2.58;;
39814;SDS011;25495;45.948;4.568;2022-10-22T11:37:53;3.33;;;2.05;;
39814;SDS011;25495;45.948;4.568;2022-10-22T11:40:31;5.57;;;2.28;;
39814;SDS011;25495;45.948;4.568;2022-10-22T11:43:04;5.60;;;2.45;;
39814;SDS011;25495;45.948;4.568;2022-10-22T11:45:41;5.40;;;1.95;;
39814;SDS011;25495;45.948;4.568;2022-10-22T11:50:48;3.55;;;1.90;;
39814;SDS011;25495;45.948;4.568;2022-10-22T12:08:40;2.33;;;1.73;;
39814;SDS011;25495;45.948;4.568;2022-10-22T12:14:24;6.40;;;2.90;;
39814;SDS011;25495;45.948;4.568;2022-10-22T12:22:01;3.05;;;1.73;;
39814;SDS011;25495;45.948;4.568;2022-10-22T12:28:15;5.20;;;1.70;;
39814;SDS011;25495;45.948;4.568;2022-10-22T12:30:43;5.85;;;2.50;;
39814;SDS011;25495;45.948;4.568;2022-10-22T12:33:17;14.98;;;4.35;;
39814;SDS011;25495;45.948;4.568;2022-10-22T12:35:47;4.78;;;2.47;;
39814;SDS011;25495;45.948;4.568;2022-10-22T12:38:21;5.57;;;2.45;;
39814;SDS011;25495;45.948;4.568;2022-10-22T12:43:35;3.33;;;1.83;;
39814;SDS011;25495;45.948;4.568;2022-10-22T12:46:03;3.40;;;1.77;;
39814;SDS011;25495;45.948;4.568;2022-10-22T12:48:35;4.40;;;2.28;;
39814;SDS011;25495;45.948;4.568;2022-10-22T12:51:03;3.65;;;2.13;;
39814;SDS011;25495;45.948;4.568;2022-10-22T12:53:34;6.45;;;2.53;;
39814;SDS011;25495;45.948;4.568;2022-10-22T12:56:04;4.20;;;1.90;;
39814;SDS011;25495;45.948;4.568;2022-10-22T12:59:33;6.22;;;2.08;;
39814;SDS011;25495;45.948;4.568;2022-10-22T13:02:00;2.80;;;1.95;;
39814;SDS011;25495;45.948;4.568;2022-10-22T13:04:32;8.23;;;2.75;;
39814;SDS011;25495;45.948;4.568;2022-10-22T13:09:38;7.07;;;2.38;;
39814;SDS011;25495;45.948;4.568;2022-10-22T13:12:25;7.18;;;2.30;;
39814;SDS011;25495;45.948;4.568;2022-10-22T13:14:52;12.68;;;3.08;;
39814;SDS011;25495;45.948;4.568;2022-10-22T13:17:19;5.15;;;2.47;;
39814;SDS011;25495;45.948;4.568;2022-10-22T13:20:11;4.22;;;2.47;;
39814;SDS011;25495;45.948;4.568;2022-10-22T13:22:57;8.07;;;1.80;;
39814;SDS011;25495;45.948;4.568;2022-10-22T13:28:02;4.78;;;1.98;;
39814;SDS011;25495;45.948;4.568;2022-10-22T13:33:43;5.25;;;1.60;;
39814;SDS011;25495;45.948;4.568;2022-10-22T13:36:14;7.03;;;1.70;;
39814;SDS011;25495;45.948;4.568;2022-10-22T13:38:41;6.35;;;1.85;;
39814;SDS011;25495;45.948;4.568;2022-10-22T13:41:21;2.67;;;1.73;;
39814;SDS011;25495;45.948;4.568;2022-10-22T13:43:56;7.80;;;2.20;;
39814;SDS011;25495;45.948;4.568;2022-10-22T13:46:22;4.45;;;2.38;;
39814;SDS011;25495;45.948;4.568;2022-10-22T13:48:50;5.93;;;2.03;;
39814;SDS011;25495;45.948;4.568;2022-10-22T13:51:19;3.47;;;1.63;;
39814;SDS011;25495;45.948;4.568;2022-10-22T13:54:03;5.93;;;2.10;;
39814;SDS011;25495;45.948;4.568;2022-10-22T13:56:42;3.40;;;2.20;;
39814;SDS011;25495;45.948;4.568;2022-10-22T13:59:08;4.15;;;1.98;;
39814;SDS011;25495;45.948;4.568;2022-10-22T14:01:35;4.85;;;2.00;;
39814;SDS011;25495;45.948;4.568;2022-10-22T14:04:02;2.65;;;1.67;;
39814;SDS011;25495;45.948;4.568;2022-10-22T14:06:30;4.10;;;1.90;;
39814;SDS011;25495;45.948;4.568;2022-10-22T14:09:01;4.70;;;2.50;;
39814;SDS011;25495;45.948;4.568;2022-10-22T14:11:32;6.25;;;2.13;;
39814;SDS011;25495;45.948;4.568;2022-10-22T14:13:59;3.42;;;1.77;;
39814;SDS011;25495;45.948;4.568;2022-10-22T14:16:27;4.50;;;1.90;;
39814;SDS011;25495;45.948;4.568;2022-10-22T14:18:56;7.93;;;2.45;;
39814;SDS011;25495;45.948;4.568;2022-10-22T14:21:23;3.72;;;2.35;;
39814;SDS011;25495;45.948;4.568;2022-10-22T14:23:49;10.68;;;2.63;;
39814;SDS011;25495;45.948;4.568;2022-10-22T14:26:24;5.30;;;2.17;;
39814;SDS011;25495;45.948;4.568;2022-10-22T14:28:54;7.53;;;2.25;;
39814;SDS011;25495;45.948;4.568;2022-10-22T14:31:20;7.70;;;1.98;;
39814;SDS011;25495;45.948;4.568;2022-10-22T14:33:46;5.45;;;2.35;;
39814;SDS011;25495;45.948;4.568;2022-10-22T14:36:13;4.40;;;2.38;;
39814;SDS011;25495;45.948;4.568;2022-10-22T14:38:40;3.08;;;1.98;;
39814;SDS011;25495;45.948;4.568;2022-10-22T14:43:46;4.50;;;2.40;;
39814;SDS011;25495;45.948;4.568;2022-10-22T14:46:12;4.90;;;2.58;;
39814;SDS011;25495;45.948;4.568;2022-10-22T14:48:39;4.18;;;1.75;;
39814;SDS011;25495;45.948;4.568;2022-10-22T14:51:05;11.55;;;2.17;;
39814;SDS011;25495;45.948;4.568;2022-10-22T14:53:31;4.22;;;2.10;;
39814;SDS011;25495;45.948;4.568;2022-10-22T14:55:57;3.90;;;2.25;;
39814;SDS011;25495;45.948;4.568;2022-10-22T14:58:25;5.00;;;2.10;;
39814;SDS011;25495;45.948;4.568;2022-10-22T15:00:50;5.32;;;2.30;;
39814;SDS011;25495;45.948;4.568;2022-10-22T15:03:16;7.18;;;2.30;;
39814;SDS011;25495;45.948;4.568;2022-10-22T15:05:42;2.85;;;1.85;;
39814;SDS011;25495;45.948;4.568;2022-10-22T15:08:09;5.78;;;2.00;;
39814;SDS011;25495;45.948;4.568;2022-10-22T15:10:35;4.38;;;1.80;;
39814;SDS011;25495;45.948;4.568;2022-10-22T15:13:01;7.38;;;2.20;;
39814;SDS011;25495;45.948;4.568;2022-10-22T15:15:27;5.80;;;1.98;;
39814;SDS011;25495;45.948;4.568;2022-10-22T15:17:52;4.18;;;2.15;;
39814;SDS011;25495;45.948;4.568;2022-10-22T15:20:18;4.50;;;2.28;;
39814;SDS011;25495;45.948;4.568;2022-10-22T15:22:44;4.35;;;2.15;;
39814;SDS011;25495;45.948;4.568;2022-10-22T15:25:10;11.23;;;2.08;;
39814;SDS011;25495;45.948;4.568;2022-10-22T15:27:37;5.70;;;2.65;;
39814;SDS011;25495;45.948;4.568;2022-10-22T15:30:04;8.20;;;2.10;;
39814;SDS011;25495;45.948;4.568;2022-10-22T15:32:31;4.13;;;2.60;;
39814;SDS011;25495;45.948;4.568;2022-10-22T15:34:58;5.78;;;1.80;;
39814;SDS011;25495;45.948;4.568;2022-10-22T15:40:19;8.25;;;2.60;;
39814;SDS011;25495;45.948;4.568;2022-10-22T15:42:44;8.98;;;2.00;;
39814;SDS011;25495;45.948;4.568;2022-10-22T15:45:10;9.15;;;1.92;;
39814;SDS011;25495;45.948;4.568;2022-10-22T15:47:36;7.93;;;2.72;;
39814;SDS011;25495;45.948;4.568;2022-10-22T15:50:02;8.02;;;1.98;;
39814;SDS011;25495;45.948;4.568;2022-10-22T15:52:29;4.80;;;2.30;;
39814;SDS011;25495;45.948;4.568;2022-10-22T15:54:55;5.63;;;1.80;;
39814;SDS011;25495;45.948;4.568;2022-10-22T15:57:21;3.05;;;1.70;;
39814;SDS011;25495;45.948;4.568;2022-10-22T15:59:47;6.85;;;2.08;;
39814;SDS011;25495;45.948;4.568;2022-10-22T16:02:14;3.40;;;1.85;;
39814;SDS011;25495;45.948;4.568;2022-10-22T16:04:40;5.97;;;1.83;;
39814;SDS011;25495;45.948;4.568;2022-10-22T16:07:06;4.68;;;1.80;;
39814;SDS011;25495;45.948;4.568;2022-10-22T16:09:31;7.65;;;2.05;;
39814;SDS011;25495;45.948;4.568;2022-10-22T16:11:57;3.05;;;1.88;;
39814;SDS011;25495;45.948;4.568;2022-10-22T16:14:23;5.82;;;2.08;;
39814;SDS011;25495;45.948;4.568;2022-10-22T16:16:50;6.97;;;2.03;;
39814;SDS011;25495;45.948;4.568;2022-10-22T16:19:18;4.40;;;1.95;;
39814;SDS011;25495;45.948;4.568;2022-10-22T16:21:47;7.47;;;2.08;;
39814;SDS011;25495;45.948;4.568;2022-10-22T16:24:15;3.75;;;1.60;;
39814;SDS011;25495;45.948;4.568;2022-10-22T16:26:40;3.08;;;2.00;;
39814;SDS011;25495;45.948;4.568;2022-10-22T16:29:06;9.55;;;2.55;;
39814;SDS011;25495;45.948;4.568;2022-10-22T16:31:35;7.47;;;2.13;;
39814;SDS011;25495;45.948;4.568;2022-10-22T16:34:05;7.32;;;2.35;;
39814;SDS011;25495;45.948;4.568;2022-10-22T16:36:31;6.45;;;2.03;;
39814;SDS011;25495;45.948;4.568;2022-10-22T16:38:57;3.42;;;2.00;;
39814;SDS011;25495;45.948;4.568;2022-10-22T16:41:23;7.20;;;2.20;;
39814;SDS011;25495;45.948;4.568;2022-10-22T16:43:51;6.05;;;2.20;;
39814;SDS011;25495;45.948;4.568;2022-10-22T16:46:20;8.02;;;2.78;;
39814;SDS011;25495;45.948;4.568;2022-10-22T16:48:47;7.38;;;2.75;;
39814;SDS011;25495;45.948;4.568;2022-10-22T16:51:14;5.90;;;2.22;;
39814;SDS011;25495;45.948;4.568;2022-10-22T16:53:44;6.95;;;2.28;;
39814;SDS011;25495;45.948;4.568;2022-10-22T16:56:12;8.63;;;2.50;;
39814;SDS011;25495;45.948;4.568;2022-10-22T16:58:44;4.78;;;2.40;;
39814;SDS011;25495;45.948;4.568;2022-10-22T17:04:34;9.18;;;2.22;;
39814;SDS011;25495;45.948;4.568;2022-10-22T17:07:00;4.85;;;2.13;;
39814;SDS011;25495;45.948;4.568;2022-10-22T17:09:25;10.25;;;2.30;;
39814;SDS011;25495;45.948;4.568;2022-10-22T17:11:51;5.40;;;2.10;;
39814;SDS011;25495;45.948;4.568;2022-10-22T17:14:17;11.18;;;2.70;;
39814;SDS011;25495;45.948;4.568;2022-10-22T17:16:43;4.70;;;2.20;;